createdAt,value
2022-10-23T00:04:21.718Z,3.27
2022-10-23T00:09:22.055Z,3.23
2022-10-23T00:14:25.046Z,3.57
2022-10-23T00:19:23.174Z,4.80
2022-10-23T00:24:21.341Z,4.67
2022-10-23T00:29:20.885Z,3.50
2022-10-23T00:34:19.491Z,3.60
2022-10-23T00:39:17.643Z,4.23
2022-10-23T00:44:45.469Z,3.07
2022-10-23T00:49:45.073Z,3.47
2022-10-23T00:54:45.425Z,4.47
2022-10-23T00:59:44.327Z,5.40
2022-10-23T01:04:43.982Z,5.10
2022-10-23T01:09:52.500Z,4.30
2022-10-23T01:15:02.146Z,5.00
2022-10-23T01:20:20.691Z,4.17
2022-10-23T01:25:30.131Z,4.20
2022-10-23T01:30:31.503Z,5.83
2022-10-23T01:35:35.426Z,3.07
2022-10-23T01:40:43.343Z,2.40
2022-10-23T01:45:45.963Z,2.30
2022-10-23T01:50:49.253Z,2.90
2022-10-23T01:55:48.546Z,3.27
2022-10-23T02:00:57.962Z,4.00
2022-10-23T02:05:56.300Z,4.37
2022-10-23T02:11:01.794Z,4.60
2022-10-23T02:16:07.217Z,4.30
2022-10-23T02:21:10.573Z,4.77
2022-10-23T02:26:16.772Z,3.60
2022-10-23T02:31:23.783Z,3.20
2022-10-23T02:36:22.578Z,3.30
2022-10-23T02:41:39.861Z,3.60
2022-10-23T02:46:50.849Z,3.73
2022-10-23T02:51:58.312Z,4.63
2022-10-23T02:57:03.381Z,3.93
2022-10-23T03:02:08.249Z,3.30
2022-10-23T03:07:12.229Z,2.50
2022-10-23T03:12:10.653Z,3.90
2022-10-23T03:17:11.321Z,4.50
2022-10-23T03:22:09.650Z,3.80
2022-10-23T03:27:07.833Z,3.80
2022-10-23T03:32:06.450Z,3.30
2022-10-23T03:37:06.152Z,4.30
2022-10-23T03:42:04.660Z,2.70
2022-10-23T03:47:02.952Z,3.57
2022-10-23T03:52:01.134Z,3.20
2022-10-23T03:57:01.620Z,4.43
2022-10-23T04:01:59.919Z,5.40
2022-10-23T04:06:58.575Z,3.10
2022-10-23T04:11:57.542Z,3.40
2022-10-23T04:17:00.281Z,2.60
2022-10-23T04:21:59.441Z,2.83
2022-10-23T04:26:57.650Z,3.57
2022-10-23T04:32:00.262Z,3.00
2022-10-23T04:36:59.841Z,2.70
2022-10-23T04:41:58.053Z,3.10
2022-10-23T04:46:56.843Z,2.03
2022-10-23T04:51:57.210Z,2.93
2022-10-23T04:57:01.330Z,2.60
2022-10-23T05:02:09.362Z,2.50
2022-10-23T05:07:09.151Z,2.40
2022-10-23T05:12:26.625Z,3.23
2022-10-23T05:17:29.006Z,2.90
2022-10-23T05:22:33.696Z,2.60
2022-10-23T05:27:31.918Z,3.30
2022-10-23T05:32:31.903Z,4.03
2022-10-23T05:37:32.474Z,3.30
2022-10-23T05:42:40.934Z,4.10
2022-10-23T05:47:41.295Z,3.17
2022-10-23T05:53:19.036Z,3.60
2022-10-23T05:58:39.089Z,5.40
2022-10-23T06:03:45.239Z,3.33
2022-10-23T06:08:45.042Z,3.10
2022-10-23T06:13:44.378Z,4.00
2022-10-23T06:18:43.259Z,3.43
2022-10-23T06:23:47.547Z,5.10
2022-10-23T06:28:58.319Z,2.90
2022-10-23T06:33:57.769Z,3.63
2022-10-23T06:38:57.675Z,5.63
2022-10-23T06:44:14.317Z,3.40
2022-10-23T06:49:17.928Z,2.60
2022-10-23T06:54:20.522Z,3.30
2022-10-23T06:59:21.541Z,3.23
2022-10-23T07:04:22.314Z,2.80
2022-10-23T07:09:22.525Z,3.27
2022-10-23T07:14:23.614Z,3.40
2022-10-23T07:19:22.026Z,3.73
2022-10-23T07:24:37.064Z,2.83
2022-10-23T07:29:42.145Z,4.97
2022-10-23T07:34:40.783Z,4.17
2022-10-23T07:40:02.573Z,4.10
2022-10-23T07:45:04.365Z,3.20
2022-10-23T07:50:03.200Z,4.63
2022-10-23T07:55:02.754Z,2.97
2022-10-23T08:00:02.950Z,5.93
2022-10-23T08:05:01.464Z,5.43
2022-10-23T08:10:18.965Z,3.53
2022-10-23T08:15:17.534Z,3.53
2022-10-23T08:20:26.274Z,5.90
2022-10-23T08:25:26.163Z,2.57
2022-10-23T08:30:26.417Z,3.20
2022-10-23T08:35:24.971Z,2.70
2022-10-23T08:40:26.393Z,3.80
2022-10-23T08:45:54.228Z,4.97
2022-10-23T08:51:18.912Z,3.90
2022-10-23T08:56:24.096Z,3.67
2022-10-23T09:01:38.686Z,3.77
2022-10-23T09:06:40.612Z,3.43
2022-10-23T09:11:47.398Z,2.97
2022-10-23T09:16:58.856Z,2.80
2022-10-23T09:21:57.605Z,2.30
2022-10-23T09:26:57.107Z,2.50
2022-10-23T09:31:57.324Z,1.93
2022-10-23T09:36:57.942Z,2.80
2022-10-23T09:41:58.915Z,3.20
2022-10-23T09:47:01.188Z,2.47
2022-10-23T09:52:05.119Z,3.00
2022-10-23T09:57:16.707Z,3.53
2022-10-23T10:02:27.156Z,2.60
2022-10-23T10:07:57.130Z,2.70
2022-10-23T10:13:02.536Z,2.70
2022-10-23T10:18:13.183Z,3.80
2022-10-23T10:23:19.236Z,3.60
2022-10-23T10:28:43.565Z,2.80
2022-10-23T10:33:55.344Z,2.07
2022-10-23T10:45:47.978Z,2.50
2022-10-23T10:50:51.043Z,3.13
2022-10-23T10:55:55.358Z,3.17
2022-10-23T11:00:59.756Z,2.87
2022-10-23T11:11:07.626Z,2.80
2022-10-23T11:16:13.839Z,3.40
2022-10-23T11:21:23.303Z,2.23
2022-10-23T11:26:41.691Z,2.70
2022-10-23T11:31:52.188Z,2.60
2022-10-23T11:36:53.774Z,2.63
2022-10-23T11:41:55.393Z,2.23
2022-10-23T11:47:03.897Z,2.20
2022-10-23T11:52:03.274Z,2.00
2022-10-23T11:57:13.875Z,2.00
2022-10-23T12:02:27.461Z,2.27
2022-10-23T12:07:28.383Z,2.00
2022-10-23T12:12:34.024Z,2.20
2022-10-23T12:17:40.214Z,2.20
2022-10-23T12:22:48.189Z,2.10
2022-10-23T12:27:50.107Z,2.37
2022-10-23T12:33:15.936Z,2.20
2022-10-23T12:38:17.133Z,1.90
2022-10-23T12:43:25.946Z,1.80
2022-10-23T12:48:26.548Z,2.00
2022-10-23T12:53:25.281Z,1.70
2022-10-23T12:58:25.390Z,1.80
2022-10-23T13:03:30.430Z,1.93
2022-10-23T13:08:34.280Z,2.20
2022-10-23T13:13:52.588Z,2.10
2022-10-23T13:18:53.600Z,1.50
2022-10-23T13:23:52.539Z,1.70
2022-10-23T13:28:51.115Z,2.37
2022-10-23T13:33:52.675Z,1.83
2022-10-23T13:39:02.436Z,2.20
2022-10-23T13:44:00.529Z,2.50
2022-10-23T13:49:00.036Z,2.70
2022-10-23T13:53:59.294Z,2.33
2022-10-23T13:58:57.455Z,1.80
2022-10-23T14:03:57.732Z,2.40
2022-10-23T14:08:57.528Z,2.30
2022-10-23T14:13:55.726Z,2.37
2022-10-23T14:18:53.915Z,2.10
2022-10-23T14:23:52.978Z,2.00
2022-10-23T14:28:55.401Z,2.87
2022-10-23T14:33:55.927Z,2.10
2022-10-23T14:38:56.771Z,2.20
2022-10-23T14:43:56.502Z,2.07
2022-10-23T14:48:58.632Z,1.93
2022-10-23T14:54:01.599Z,1.97
2022-10-23T14:59:03.553Z,2.00
2022-10-23T15:04:01.686Z,2.40
2022-10-23T15:08:59.834Z,2.53
2022-10-23T15:13:59.936Z,1.40
2022-10-23T15:18:59.426Z,1.70
2022-10-23T15:23:57.567Z,2.50
2022-10-23T15:28:57.425Z,2.30
2022-10-23T15:33:55.566Z,2.10
2022-10-23T15:38:55.036Z,2.00
2022-10-23T15:43:53.434Z,2.63
2022-10-23T15:48:51.853Z,2.20
2022-10-23T15:53:50.127Z,3.43
2022-10-23T15:58:49.613Z,2.87
2022-10-23T16:03:47.856Z,3.40
2022-10-23T16:08:46.083Z,2.50
2022-10-23T16:13:44.830Z,2.50
2022-10-23T16:18:45.119Z,2.80
2022-10-23T16:23:43.201Z,2.90
2022-10-23T16:28:43.276Z,2.40
2022-10-23T16:33:41.376Z,2.10
2022-10-23T16:38:40.832Z,3.00
2022-10-23T16:43:39.118Z,1.63
2022-10-23T16:48:47.741Z,2.30
2022-10-23T16:53:47.653Z,1.70
2022-10-23T16:58:46.289Z,2.30
2022-10-23T17:03:48.143Z,2.33
2022-10-23T17:08:47.932Z,1.90
2022-10-23T17:13:53.659Z,2.33
2022-10-23T17:18:55.755Z,2.63
2022-10-23T17:23:55.293Z,2.33
2022-10-23T17:28:53.597Z,1.67
2022-10-23T17:33:53.599Z,2.40
2022-10-23T17:38:51.936Z,2.67
2022-10-23T17:43:52.144Z,2.03
2022-10-23T17:48:50.287Z,1.97
2022-10-23T17:53:50.910Z,1.80
2022-10-23T17:58:51.411Z,2.20
2022-10-23T18:03:49.545Z,1.90
2022-10-23T18:08:48.765Z,2.30
2022-10-23T18:13:47.552Z,1.70
2022-10-23T18:18:48.747Z,1.90
2022-10-23T18:23:47.232Z,2.53
2022-10-23T18:28:46.903Z,2.50
2022-10-23T18:33:47.222Z,2.10
2022-10-23T18:38:45.635Z,1.80
2022-10-23T18:43:44.700Z,2.80
2022-10-23T18:48:44.207Z,3.53
2022-10-23T18:53:45.785Z,1.80
2022-10-23T18:58:43.954Z,3.33
2022-10-23T19:03:42.162Z,2.30
2022-10-23T19:08:42.050Z,2.17
2022-10-23T19:13:43.008Z,1.90
2022-10-23T19:18:43.590Z,2.30
2022-10-23T19:23:42.810Z,2.00
2022-10-23T19:28:45.402Z,2.70
2022-10-23T19:33:43.534Z,2.80
2022-10-23T19:38:41.962Z,1.80
2022-10-23T19:43:40.095Z,1.90
2022-10-23T19:48:42.432Z,3.13
2022-10-23T19:53:42.011Z,3.10
2022-10-23T19:58:40.856Z,2.10
2022-10-23T20:03:40.892Z,2.90
2022-10-23T20:08:39.281Z,2.23
2022-10-23T20:13:37.651Z,2.37
2022-10-23T20:18:36.111Z,3.03
2022-10-23T20:23:35.570Z,4.00
2022-10-23T20:28:33.853Z,2.93
2022-10-23T20:33:31.997Z,1.90
2022-10-23T20:38:30.433Z,2.73
2022-10-23T20:43:29.899Z,2.37
2022-10-23T20:48:28.014Z,2.63
2022-10-23T20:53:26.207Z,2.50
2022-10-23T20:58:24.400Z,1.80
2022-10-23T21:03:23.947Z,2.13
2022-10-23T21:08:22.055Z,3.60
2022-10-23T21:13:20.266Z,1.50
2022-10-23T21:18:27.534Z,2.13
2022-10-23T21:23:39.029Z,2.00
2022-10-23T21:28:37.477Z,2.20
2022-10-23T21:33:37.372Z,2.57
2022-10-23T21:38:36.830Z,1.33
2022-10-23T21:43:36.373Z,2.23
2022-10-23T21:48:34.695Z,2.40
2022-10-23T21:53:33.625Z,4.00
2022-10-23T21:58:31.815Z,3.80
2022-10-23T22:03:31.306Z,2.57
2022-10-23T22:08:30.522Z,1.90
2022-10-23T22:13:28.656Z,1.93
2022-10-23T22:18:26.830Z,2.60
2022-10-23T22:23:26.389Z,2.37
2022-10-23T22:28:24.703Z,1.73
2022-10-23T22:33:22.846Z,1.90
2022-10-23T22:38:20.957Z,1.60
2022-10-23T22:43:20.423Z,1.40
2022-10-23T22:48:18.549Z,2.03
2022-10-23T22:53:16.755Z,2.20
2022-10-23T22:58:14.887Z,1.77
2022-10-23T23:03:14.715Z,2.23
2022-10-23T23:08:13.699Z,2.00
2022-10-23T23:13:11.846Z,2.33
2022-10-23T23:18:09.986Z,1.57
2022-10-23T23:23:09.921Z,1.43
2022-10-23T23:28:08.024Z,1.77
2022-10-23T23:33:06.181Z,1.50
2022-10-23T23:38:04.421Z,1.87
2022-10-23T23:43:04.419Z,1.93
2022-10-23T23:48:02.544Z,1.33
2022-10-23T23:53:00.695Z,2.07
2022-10-23T23:57:58.856Z,1.93
